Time;durP1;ratioP1;P1;durP2;ratioP2;P2;SDS_P1;SDS_P2;PMS_P1;PMS_P2;Temp;Humidity;BMP_temperature;BMP_pressure;BME280_temperature;BME280_humidity;BME280_pressure;Samples;Min_cycle;Max_cycle;Signal;HPM_P1;HPM_P2
2024/03/12 00:02:07;;;;;;;2.20;1.73;;;;;;;-145.63;39.86;39266.75;5032463;28;20034;-66
2024/03/12 00:04:42;;;;;;;2.22;1.67;;;;;;;-145.63;39.47;39260.88;5031213;28;20076;-66
2024/03/12 00:07:22;;;;;;;3.22;1.77;;;;;;;-145.63;40.54;39258.94;5032487;28;20037;-67
2024/03/12 00:10:21;;;;;;;2.33;1.40;;;;;;;-145.63;39.93;39290.22;5032162;28;20038;-66
2024/03/12 00:16:12;;;;;;;1.67;1.58;;;;;;;-145.63;39.89;39276.53;5032982;28;20120;-67
2024/03/12 00:18:41;;;;;;;2.33;1.60;;;;;;;-145.63;39.72;39274.56;5032949;28;20076;-67
2024/03/12 00:21:07;;;;;;;1.88;1.65;;;;;;;-145.63;39.77;39309.78;5032710;28;20136;-67
2024/03/12 00:24:11;;;;;;;3.60;1.50;;;;;;;-145.63;39.52;39266.75;5012245;28;20040;-67
2024/03/12 00:26:42;;;;;;;2.15;1.35;;;;;;;-145.63;38.96;39243.28;5044858;28;20395;-68
2024/03/12 00:29:09;;;;;;;2.88;1.70;;;;;;;-145.63;39.77;39255.00;5028366;28;20052;-67
2024/03/12 00:32:12;;;;;;;2.13;1.67;;;;;;;-145.63;40.34;39258.94;5032652;28;20044;-65
2024/03/12 00:34:43;;;;;;;1.95;1.45;;;;;;;-145.63;39.94;39239.38;5032668;28;20116;-66
2024/03/12 00:37:28;;;;;;;2.25;1.42;;;;;;;-145.63;39.62;39255.00;5033036;28;20049;-66
2024/03/12 00:39:56;;;;;;;2.47;1.52;;;;;;;-145.63;40.91;39268.72;5032459;28;20135;-66
2024/03/12 00:42:25;;;;;;;3.42;1.52;;;;;;;-145.63;40.59;39270.66;5032967;28;20025;-67
2024/03/12 00:49:00;;;;;;;1.65;1.23;;;;;;;-145.63;40.96;39247.19;5011425;28;20133;-67
2024/03/12 00:51:43;;;;;;;3.22;1.50;;;;;;;-145.63;40.52;39258.94;5028684;28;20041;-65
2024/03/12 00:54:24;;;;;;;3.60;1.80;;;;;;;-145.63;40.31;39272.63;5031235;28;20061;-66
2024/03/12 00:57:05;;;;;;;4.40;1.67;;;;;;;-145.63;39.90;39272.63;5012665;28;20439;-67
2024/03/12 00:59:34;;;;;;;2.15;1.33;;;;;;;-145.63;39.95;39260.88;5029737;28;20033;-66
2024/03/12 01:02:03;;;;;;;2.10;1.40;;;;;;;-145.63;39.90;39262.84;5031128;28;20034;-67
2024/03/12 01:04:38;;;;;;;2.60;1.27;;;;;;;-145.63;41.36;39255.00;5032097;28;20116;-67
2024/03/12 01:07:19;;;;;;;2.10;1.08;;;;;;;-145.63;40.57;39219.81;5033516;28;20065;-66
2024/03/12 01:10:02;;;;;;;2.60;1.45;;;;;;;-145.63;40.55;39260.88;5036047;28;20072;-68
2024/03/12 01:12:39;;;;;;;3.85;1.73;;;;;;;-145.63;39.90;39256.97;5034689;28;20084;-67
2024/03/12 01:15:29;;;;;;;3.83;2.22;;;;;;;-145.63;39.50;39266.75;5035645;28;20040;-66
2024/03/12 01:18:25;;;;;;;3.70;2.05;;;;;;;-145.63;40.28;39262.84;5020638;28;20096;-66
2024/03/12 01:21:19;;;;;;;3.00;2.03;;;;;;;-145.63;39.45;39239.38;5035761;28;20056;-68
2024/03/12 01:23:48;;;;;;;3.08;1.75;;;;;;;-145.63;39.95;39262.84;5022227;28;20040;-67
2024/03/12 01:26:20;;;;;;;4.68;1.85;;;;;;;-145.63;39.94;39278.47;5035385;28;20029;-67
2024/03/12 01:29:03;;;;;;;;;;;;;;;-145.63;39.84;39270.66;5034387;28;20056;-67
2024/03/12 01:31:31;;;;;;;2.30;1.77;;;;;;;-145.63;40.16;39247.19;5034208;28;19936;-68
2024/03/12 01:34:02;;;;;;;2.25;1.80;;;;;;;-145.63;39.78;39253.06;5039138;28;20116;-67
2024/03/12 01:36:50;;;;;;;2.22;1.63;;;;;;;-145.63;40.13;39237.41;5053908;28;20044;-66
2024/03/12 01:39:29;;;;;;;4.18;2.28;;;;;;;-145.63;40.02;39229.59;5034090;28;20049;-67
2024/03/12 01:44:45;;;;;;;5.03;2.10;;;;;;;-145.63;41.08;39243.28;5035596;28;20057;-66
2024/03/12 01:47:26;;;;;;;4.28;2.00;;;;;;;-145.63;39.70;39233.50;5035362;28;20087;-67
2024/03/12 01:50:32;;;;;;;3.10;2.20;;;;;;;-145.63;39.77;39305.88;5034915;28;20036;-68
2024/03/12 01:53:06;;;;;;;4.13;2.08;;;;;;;-145.63;39.79;39256.97;5034904;28;20540;-66
2024/03/12 01:55:43;;;;;;;11.13;2.30;;;;;;;-145.63;40.58;39239.38;5049644;28;20485;-66
2024/03/12 01:58:12;;;;;;;3.33;2.10;;;;;;;-145.63;40.02;39282.41;5034832;28;20033;-67
2024/03/12 02:00:40;;;;;;;2.78;1.95;;;;;;;-145.63;39.71;39270.66;5037973;28;20032;-68
2024/03/12 02:03:12;;;;;;;2.10;1.70;;;;;;;-145.63;41.02;39243.28;5036769;28;20033;-66
2024/03/12 02:05:40;;;;;;;3.03;1.75;;;;;;;-145.63;40.14;39262.84;5034653;28;20422;-66
2024/03/12 02:08:18;;;;;;;4.88;1.67;;;;;;;-145.63;40.07;39247.19;5034816;28;20044;-66
2024/03/12 02:10:46;;;;;;;2.70;1.83;;;;;;;-145.63;40.21;39258.94;5033793;28;20029;-66
2024/03/12 02:13:21;;;;;;;2.22;1.52;;;;;;;-145.63;40.43;39256.97;5034903;28;20476;-67
2024/03/12 02:15:53;;;;;;;4.60;2.63;;;;;;;-145.63;40.32;39241.31;5017244;28;20513;-67
2024/03/12 02:19:03;;;;;;;2.10;1.45;;;;;;;-145.63;40.36;39274.56;5033180;28;20115;-66
2024/03/12 02:21:29;;;;;;;2.30;1.60;;;;;;;-145.63;40.50;39255.00;5033640;28;20408;-65
2024/03/12 02:23:58;;;;;;;2.88;1.50;;;;;;;-145.63;40.16;39243.28;5034603;28;20076;-66
2024/03/12 02:26:24;;;;;;;6.25;2.45;;;;;;;-145.63;40.09;39227.63;5034730;28;20053;-65
2024/03/12 02:28:53;;;;;;;2.55;1.80;;;;;;;-145.63;40.83;39233.50;5034426;28;20037;-66
2024/03/12 02:31:27;;;;;;;3.38;1.65;;;;;;;-145.63;41.04;39229.59;5033361;28;20030;-66
2024/03/12 02:37:11;;;;;;;6.88;1.80;;;;;;;-145.63;40.93;39243.28;5033988;28;20060;-66
2024/03/12 02:39:39;;;;;;;2.33;1.60;;;;;;;-145.63;40.01;39241.31;5034503;28;20044;-66
2024/03/12 02:42:08;;;;;;;3.42;1.65;;;;;;;-145.63;39.91;39243.28;5034161;28;20061;-65
2024/03/12 02:44:42;;;;;;;3.40;1.73;;;;;;;-145.63;40.52;39249.16;5032991;28;20032;-66
2024/03/12 02:47:09;;;;;;;4.53;1.38;;;;;;;-145.63;40.47;39294.13;5034187;28;20029;-67
2024/03/12 02:49:47;;;;;;;3.78;1.52;;;;;;;-145.63;40.83;39196.34;5033101;28;20021;-67
2024/03/12 02:52:21;;;;;;;2.72;1.67;;;;;;;-145.63;40.36;39256.97;5034282;28;20029;-67
2024/03/12 02:55:04;;;;;;;3.33;1.75;;;;;;;-145.63;40.88;39253.06;5033979;28;20037;-67
2024/03/12 02:58:07;;;;;;;4.03;1.85;;;;;;;-145.63;40.52;39237.41;5034140;28;20037;-67
2024/03/12 03:00:45;;;;;;;4.05;1.88;;;;;;;-145.63;40.10;39235.47;5034208;28;20509;-66
2024/03/12 03:03:16;;;;;;;4.75;1.85;;;;;;;-145.63;40.32;39272.63;5033832;28;20056;-67
2024/03/12 03:05:52;;;;;;;3.95;1.92;;;;;;;-145.63;42.52;39229.59;5033686;28;20029;-67
2024/03/12 03:08:37;;;;;;;1.95;1.42;;;;;;;-145.63;41.29;39235.47;5033714;28;20064;-67
2024/03/12 03:11:21;;;;;;;3.97;1.88;;;;;;;-145.63;41.00;39255.00;5033535;28;20485;-66
2024/03/12 03:13:52;;;;;;;4.82;2.25;;;;;;;-145.63;40.43;39260.88;5032502;28;20398;-66
2024/03/12 03:16:33;;;;;;;3.70;1.92;;;;;;;-145.63;40.59;39270.66;5033757;28;20029;-65
2024/03/12 03:19:02;;;;;;;4.87;2.00;;;;;;;-145.63;40.76;39258.94;5033189;28;20068;-67
2024/03/12 03:21:33;;;;;;;2.70;1.83;;;;;;;-145.63;40.68;39245.25;5032296;28;20091;-66
2024/03/12 03:24:08;;;;;;;3.63;1.83;;;;;;;-145.63;41.21;39260.88;5033036;28;20030;-66
2024/03/12 03:26:42;;;;;;;3.42;1.83;;;;;;;-145.63;40.35;39270.66;5033511;28;20060;-65
2024/03/12 03:29:31;;;;;;;5.68;1.80;;;;;;;-145.63;40.61;39235.47;5031736;28;20037;-65
2024/03/12 03:32:15;;;;;;;2.35;1.80;;;;;;;-145.63;41.24;39237.41;5032055;28;20029;-66
2024/03/12 03:34:44;;;;;;;3.17;1.90;;;;;;;-145.63;41.59;39213.94;5032929;28;20057;-66
2024/03/12 03:37:32;;;;;;;3.53;1.80;;;;;;;-145.63;40.82;39270.66;5032796;28;20030;-66
2024/03/12 03:40:11;;;;;;;2.55;1.75;;;;;;;-145.63;41.29;39270.66;5031621;28;20091;-66
2024/03/12 03:43:11;;;;;;;3.33;1.58;;;;;;;-145.63;40.13;39235.47;5033505;28;20039;-66
2024/03/12 03:45:39;;;;;;;3.17;1.77;;;;;;;-145.63;41.53;39258.94;5032885;28;20029;-66
2024/03/12 03:48:11;;;;;;;2.75;1.60;;;;;;;-145.63;41.23;39276.53;5032572;28;20033;-66
2024/03/12 03:50:43;;;;;;;2.15;1.60;;;;;;;-145.63;41.85;39272.63;5032863;28;20032;-64
2024/03/12 03:53:29;;;;;;;6.13;1.90;;;;;;;-145.63;41.29;39249.16;5032715;28;20120;-65
2024/03/12 03:56:15;;;;;;;6.57;2.00;;;;;;;-145.63;41.09;39262.84;5032338;28;20040;-66
2024/03/12 03:59:19;;;;;;;2.33;1.80;;;;;;;-145.63;40.52;39245.25;5033530;28;20036;-66
2024/03/12 04:01:49;;;;;;;4.55;2.33;;;;;;;-145.63;41.22;39243.28;5034412;28;20029;-66
2024/03/12 04:04:15;;;;;;;3.20;2.05;;;;;;;-145.63;40.47;39270.66;5039661;28;20037;-68
2024/03/12 04:06:44;;;;;;;2.50;1.73;;;;;;;-145.63;41.26;39251.09;5039095;28;20025;-69
2024/03/12 04:09:54;;;;;;;4.45;1.80;;;;;;;-145.63;41.03;39266.75;5033924;28;20030;-69
2024/03/12 04:12:25;;;;;;;4.82;1.70;;;;;;;-145.63;40.62;39294.13;5040291;28;20029;-65
2024/03/12 04:18:33;;;;;;;3.30;2.00;;;;;;;-145.63;40.74;39262.84;5021329;28;20040;-66
2024/03/12 04:21:36;;;;;;;4.90;1.95;;;;;;;-145.63;40.70;39251.09;5033317;28;20037;-67
2024/03/12 04:24:14;;;;;;;2.47;2.05;;;;;;;-145.63;41.15;39280.44;5011432;28;20037;-66
2024/03/12 04:27:03;;;;;;;3.80;2.05;;;;;;;-145.63;41.58;39253.06;5012741;28;20506;-68
2024/03/12 04:29:32;;;;;;;2.90;1.80;;;;;;;-145.63;41.26;39258.94;5028912;28;20061;-68
2024/03/12 04:32:07;;;;;;;3.58;2.03;;;;;;;-145.63;41.44;39258.94;5030493;28;20122;-67
2024/03/12 04:34:45;;;;;;;2.42;1.95;;;;;;;-145.63;40.45;39225.69;5032161;28;20409;-68
2024/03/12 04:37:13;;;;;;;5.13;2.20;;;;;;;-145.63;40.51;39270.66;5063959;28;20037;-67
2024/03/12 04:39:39;;;;;;;3.35;2.05;;;;;;;-145.63;41.23;39270.66;5032020;28;20533;-67
2024/03/12 04:42:13;;;;;;;2.13;1.70;;;;;;;-145.63;41.43;39255.00;5033332;28;20083;-67
2024/03/12 04:44:47;;;;;;;3.22;1.80;;;;;;;-145.63;41.81;39251.09;5036701;28;20146;-67
2024/03/12 04:47:20;;;;;;;2.42;1.88;;;;;;;-145.63;41.97;39221.78;5036320;28;20057;-63
2024/03/12 04:50:25;;;;;;;4.72;2.20;;;;;;;-145.63;41.13;39274.56;5044912;28;20159;-67
2024/03/12 04:53:03;;;;;;;4.95;2.08;;;;;;;-145.63;41.54;39243.28;5035978;28;20079;-67
2024/03/12 04:55:36;;;;;;;4.05;1.80;;;;;;;-145.63;41.26;39251.09;5035788;28;20032;-67
2024/03/12 04:58:24;;;;;;;3.60;1.70;;;;;;;-145.63;41.19;39255.00;5036570;28;20107;-67
2024/03/12 05:01:13;;;;;;;6.88;2.20;;;;;;;-145.63;42.08;39268.72;5035882;28;20091;-65
2024/03/12 05:03:45;;;;;;;2.25;1.65;;;;;;;-145.63;42.14;39251.09;5036130;28;20055;-66
2024/03/12 05:06:19;;;;;;;;;;;;;;;-145.63;40.70;39229.59;5036995;28;20040;-66
2024/03/12 05:08:55;;;;;;;2.67;1.90;;;;;;;-145.63;41.01;39198.31;5014600;28;20262;-66
2024/03/12 05:11:51;;;;;;;2.60;2.00;;;;;;;-145.63;40.53;39196.34;5031500;28;20038;-68
2024/03/12 05:14:20;;;;;;;3.88;1.98;;;;;;;-145.63;40.68;39241.31;5035966;28;20486;-68
2024/03/12 05:16:55;;;;;;;3.60;1.80;;;;;;;-145.63;40.18;39225.69;5044938;28;20029;-67
2024/03/12 05:19:59;;;;;;;2.78;1.75;;;;;;;-145.63;40.86;39227.63;5039294;28;20108;-66
2024/03/12 05:22:41;;;;;;;3.13;1.80;;;;;;;-145.63;40.65;39243.28;5036137;28;20029;-65
2024/03/12 05:25:24;;;;;;;2.97;2.13;;;;;;;-145.63;40.67;39200.25;5035752;28;20056;-65
2024/03/12 05:27:53;;;;;;;4.07;1.80;;;;;;;-145.63;40.76;39215.91;5035064;28;20117;-67
2024/03/12 05:30:40;;;;;;;4.18;1.95;;;;;;;-145.63;40.30;39239.38;5035521;28;20112;-66
2024/03/12 05:33:26;;;;;;;5.60;1.90;;;;;;;-145.63;40.56;39223.72;5015629;28;20034;-66
2024/03/12 05:36:11;;;;;;;3.70;2.10;;;;;;;-145.63;40.70;39151.38;5035163;28;20188;-66
2024/03/12 05:38:44;;;;;;;4.57;2.10;;;;;;;-145.63;40.47;39247.19;5034962;28;20037;-67
2024/03/12 05:41:48;;;;;;;4.38;1.75;;;;;;;-145.63;39.84;39223.72;5036063;28;20060;-66
2024/03/12 05:50:07;;;;;;;5.45;2.55;;;;;;;-145.63;40.78;39247.19;5034777;28;20101;-66
2024/03/12 05:52:53;;;;;;;3.30;2.20;;;;;;;-145.63;40.45;39235.47;5035286;28;20029;-67
2024/03/12 05:55:25;;;;;;;;;;;;;;;-145.63;40.24;39213.94;5035327;28;20033;-67
2024/03/12 05:57:53;;;;;;;4.88;2.55;;;;;;;-145.63;40.92;39192.44;5034811;28;19917;-68
2024/03/12 06:03:03;;;;;;;3.58;2.40;;;;;;;-145.63;40.34;39133.75;5015748;28;20056;-66
2024/03/12 06:05:38;;;;;;;8.20;2.30;;;;;;;-145.63;40.36;39239.38;5048936;28;20043;-65
2024/03/12 06:08:15;;;;;;;5.82;3.45;;;;;;;-145.63;40.13;39231.53;5042905;28;20630;-65
2024/03/12 06:11:05;;;;;;;4.85;2.67;;;;;;;-145.63;39.81;39245.25;5044206;28;20060;-65
2024/03/12 06:13:33;;;;;;;6.00;2.40;;;;;;;-145.63;39.96;39212.00;5047402;28;20420;-67
2024/03/12 06:16:21;;;;;;;6.55;3.40;;;;;;;-145.63;40.08;39219.81;5033082;28;20037;-66
2024/03/12 06:18:49;;;;;;;3.33;2.08;;;;;;;-145.63;39.99;39217.84;5033268;28;20136;-66
2024/03/12 06:21:36;;;;;;;;;;;;;;;-145.63;40.34;39233.50;5035398;28;20043;-66
2024/03/12 06:24:10;;;;;;;2.65;2.05;;;;;;;-145.63;39.94;39229.59;5054266;28;19908;-66
2024/03/12 06:26:48;;;;;;;2.65;2.13;;;;;;;-145.63;39.01;39198.31;5036288;28;20037;-67
2024/03/12 06:29:35;;;;;;;4.60;2.03;;;;;;;-145.63;39.66;39215.91;5050370;28;20382;-65
2024/03/12 06:32:01;;;;;;;4.20;2.33;;;;;;;-145.63;39.25;39204.16;5042953;28;20375;-66
2024/03/12 06:34:38;;;;;;;5.40;2.25;;;;;;;-145.63;39.64;39180.69;5034385;28;20502;-66
2024/03/12 06:37:13;;;;;;;3.85;1.95;;;;;;;-145.63;39.41;39270.66;5034458;28;20124;-65
2024/03/12 06:39:52;;;;;;;5.40;2.55;;;;;;;-145.63;39.07;39219.81;5034591;28;20037;-66
2024/03/12 06:42:29;;;;;;;4.05;2.22;;;;;;;-145.63;39.30;39190.47;5034514;28;20040;-66
2024/03/12 06:45:00;;;;;;;5.95;2.45;;;;;;;-145.63;39.39;39215.91;5034460;28;20385;-66
2024/03/12 06:47:26;;;;;;;3.20;2.13;;;;;;;-145.63;39.97;39217.84;5034632;28;20057;-65
2024/03/12 06:50:10;;;;;;;8.45;2.72;;;;;;;-145.63;40.32;39286.31;5033952;28;21398;-66
2024/03/12 06:52:36;;;;;;;5.82;2.00;;;;;;;-145.63;38.91;39227.63;5016561;28;20033;-66
2024/03/12 06:55:12;;;;;;;6.15;2.45;;;;;;;-145.63;39.26;39239.38;5034080;28;20029;-66
2024/03/12 06:57:47;;;;;;;4.00;2.05;;;;;;;-145.63;38.99;39237.41;5034435;28;20033;-65
2024/03/12 07:00:40;;;;;;;3.42;1.85;;;;;;;-145.63;38.44;39245.25;5012938;28;20041;-67
2024/03/12 07:03:29;;;;;;;5.85;2.33;;;;;;;-145.63;38.19;39245.25;5015003;28;20138;-66
2024/03/12 07:06:03;;;;;;;3.47;1.77;;;;;;;-145.63;38.03;39221.78;5050422;28;20075;-65
2024/03/12 07:08:36;;;;;;;4.90;2.30;;;;;;;-145.63;36.85;39188.53;5038882;28;20026;-66
2024/03/12 07:11:20;;;;;;;4.22;2.13;;;;;;;-145.63;37.08;39227.63;5033589;28;20431;-66
2024/03/12 07:14:01;;;;;;;3.47;2.17;;;;;;;-145.63;36.00;39231.53;5034360;28;20072;-66
2024/03/12 07:20:11;;;;;;;3.08;1.90;;;;;;;-145.63;35.40;39215.91;5033906;28;20108;-67
2024/03/12 07:22:45;;;;;;;5.53;2.38;;;;;;;-145.63;33.54;39129.84;5033829;28;20490;-67
2024/03/12 07:25:36;;;;;;;5.78;2.30;;;;;;;-145.63;32.68;39180.69;5033955;28;20037;-66
2024/03/12 07:28:08;;;;;;;3.55;1.75;;;;;;;-145.63;32.59;39131.81;5033360;28;20038;-67
2024/03/12 07:30:34;;;;;;;2.80;2.00;;;;;;;-145.63;31.04;39149.41;5033874;28;20140;-66
2024/03/12 07:36:04;;;;;;;3.90;1.80;;;;;;;-145.63;29.74;39180.69;5033146;28;20057;-66
2024/03/12 07:38:29;;;;;;;5.10;2.92;;;;;;;-145.63;29.41;39168.97;5033598;28;20049;-66
2024/03/12 07:41:13;;;;;;;2.65;2.10;;;;;;;-145.63;28.19;39145.50;5033433;28;20038;-66
2024/03/12 07:43:44;;;;;;;3.88;1.90;;;;;;;-145.63;29.01;39141.59;5033464;28;20033;-67
2024/03/12 07:46:38;;;;;;;6.00;2.05;;;;;;;-145.63;27.56;39288.25;5033678;28;20028;-68
2024/03/12 07:49:09;;;;;;;4.13;2.10;;;;;;;-145.63;28.53;39268.72;5015654;28;20525;-66
2024/03/12 07:51:35;;;;;;;5.15;2.20;;;;;;;-145.63;29.01;39284.34;5033427;28;20037;-67
2024/03/12 07:54:06;;;;;;;4.45;2.20;;;;;;;-145.63;29.03;39280.44;5031735;28;20405;-66
2024/03/12 07:56:41;;;;;;;2.95;1.67;;;;;;;-145.63;28.66;39280.44;5048474;28;20139;-66
2024/03/12 07:59:28;;;;;;;2.10;1.55;;;;;;;-145.63;28.92;39251.09;5041600;28;20044;-63
2024/03/12 08:01:57;;;;;;;6.35;1.80;;;;;;;-145.63;29.99;39210.03;5032648;28;20037;-64
2024/03/12 08:04:34;;;;;;;1.75;1.35;;;;;;;-145.63;27.49;39311.72;5032987;28;20029;-64
2024/03/12 08:07:03;;;;;;;2.63;1.20;;;;;;;-145.63;28.12;39268.72;5032762;28;20506;-66
2024/03/12 08:09:28;;;;;;;1.42;0.90;;;;;;;-145.63;28.36;39258.94;5032685;28;20099;-63
2024/03/12 08:11:54;;;;;;;2.88;1.08;;;;;;;-145.63;28.15;39256.97;5032157;28;20029;-65
2024/03/12 08:14:19;;;;;;;4.88;1.52;;;;;;;-145.63;28.65;39284.34;5032733;28;20390;-66
2024/03/12 08:16:49;;;;;;;2.65;1.20;;;;;;;-145.63;29.65;39247.19;5033356;28;20048;-64
2024/03/12 08:19:37;;;;;;;1.67;1.20;;;;;;;-145.63;29.12;39262.84;5036978;28;20113;-64
2024/03/12 08:22:09;;;;;;;2.75;1.35;;;;;;;-145.63;28.33;39288.25;5034954;28;20057;-64
2024/03/12 08:27:23;;;;;;;2.38;1.20;;;;;;;-145.63;28.09;39286.31;5016586;28;20036;-63
2024/03/12 08:30:08;;;;;;;1.50;1.20;;;;;;;-145.63;28.38;39313.69;5033353;28;20029;-64
2024/03/12 08:32:41;;;;;;;4.68;1.30;;;;;;;-145.63;29.18;39151.38;5036355;28;20041;-64
2024/03/12 08:35:13;;;;;;;1.58;1.23;;;;;;;-145.63;28.60;39184.59;5035352;28;20124;-64
2024/03/12 08:41:34;;;;;;;1.15;0.90;;;;;;;-145.63;26.78;39208.06;5039640;28;20037;-64
2024/03/12 08:44:02;;;;;;;2.63;1.10;;;;;;;-145.63;27.15;39212.00;5041256;28;20029;-64
2024/03/12 08:46:31;;;;;;;1.45;1.20;;;;;;;-145.63;26.46;39217.84;5056074;28;20063;-64
2024/03/12 08:48:56;;;;;;;1.77;1.35;;;;;;;-145.63;26.68;39227.63;5055672;28;20036;-64
2024/03/12 08:51:23;;;;;;;4.03;1.25;;;;;;;-145.63;27.08;39286.31;5039690;28;20034;-65
2024/03/12 08:57:03;;;;;;;3.35;1.48;;;;;;;-145.63;28.15;39241.31;5035731;28;20041;-64
2024/03/12 08:59:29;;;;;;;1.50;1.23;;;;;;;-145.63;27.16;39296.09;5051455;28;20094;-64
2024/03/12 09:01:59;;;;;;;1.35;1.23;;;;;;;-145.63;27.98;39301.94;5046355;28;20466;-64
2024/03/12 09:04:39;;;;;;;3.20;1.50;;;;;;;-145.63;28.09;39284.34;5034142;28;20036;-62
2024/03/12 09:07:26;;;;;;;2.95;1.50;;;;;;;-145.63;28.33;39268.72;5035276;28;20083;-64
2024/03/12 09:10:38;;;;;;;2.22;1.60;;;;;;;-145.63;27.33;39274.56;5035325;28;20375;-63
2024/03/12 09:16:28;;;;;;;1.83;1.25;;;;;;;-145.63;27.30;39215.91;5050852;28;20031;-64
2024/03/12 09:19:00;;;;;;;4.13;1.55;;;;;;;-145.63;26.40;39210.03;5053290;28;20447;-67
2024/03/12 09:21:30;;;;;;;2.38;1.30;;;;;;;-145.63;25.52;39217.84;5035779;28;20076;-64
2024/03/12 09:24:09;;;;;;;1.45;1.00;;;;;;;-145.63;26.04;39208.06;5035156;28;20025;-62
2024/03/12 09:30:03;;;;;;;2.92;1.42;;;;;;;-145.63;24.52;39219.81;5035139;28;20048;-64
2024/03/12 09:32:29;;;;;;;1.40;1.30;;;;;;;-145.63;25.43;39301.94;5035354;28;20112;-63
2024/03/12 09:35:07;;;;;;;2.42;1.45;;;;;;;-145.63;25.94;39210.03;5035213;28;20573;-64
2024/03/12 09:38:05;;;;;;;3.20;1.58;;;;;;;-145.63;25.30;39208.06;5035003;28;20041;-65
2024/03/12 09:40:49;;;;;;;2.40;1.33;;;;;;;-145.63;25.95;39307.81;5035555;28;20040;-69
2024/03/12 09:43:34;;;;;;;2.97;1.38;;;;;;;-145.63;26.33;39276.53;5021906;28;20024;-63
2024/03/12 09:46:22;;;;;;;3.55;1.60;;;;;;;-145.63;25.85;39274.56;5054736;28;20025;-67
2024/03/12 09:48:54;;;;;;;2.00;1.27;;;;;;;-145.63;26.92;39247.19;5054609;28;20036;-66
2024/03/12 09:51:21;;;;;;;1.38;1.25;;;;;;;-145.63;27.10;39262.84;5040757;28;20029;-68
2024/03/12 09:53:52;;;;;;;3.08;1.23;;;;;;;-145.63;26.90;39258.94;5035176;28;20049;-66
2024/03/12 09:56:37;;;;;;;1.75;1.10;;;;;;;-145.63;26.57;39278.47;5035982;28;20025;-67
2024/03/12 10:02:12;;;;;;;4.57;1.23;;;;;;;-145.63;27.64;39282.41;5033244;28;20453;-64
2024/03/12 10:04:44;;;;;;;2.38;1.50;;;;;;;-145.63;27.35;39256.97;5040664;28;20071;-64
2024/03/12 10:07:28;;;;;;;;;;;;;;;-145.63;27.06;39247.19;5053042;28;20044;-69
2024/03/12 10:10:12;;;;;;;3.35;1.33;;;;;;;-145.63;27.87;39258.94;5054575;28;19924;-66
2024/03/12 10:12:40;;;;;;;2.83;1.88;;;;;;;-145.63;27.72;39266.75;5048832;28;20033;-69
2024/03/12 10:15:43;;;;;;;1.70;1.60;;;;;;;-145.63;28.08;39274.56;5054518;28;20032;-64
2024/03/12 10:21:49;;;;;;;3.53;1.48;;;;;;;-145.63;27.99;39233.50;5049520;28;20398;-64
2024/03/12 10:24:55;;;;;;;1.13;1.10;;;;;;;-145.63;27.60;39253.06;5015202;28;20137;-71
2024/03/12 10:27:28;;;;;;;1.70;1.40;;;;;;;-145.63;28.00;39266.75;5015112;28;20034;-66
2024/03/12 10:30:26;;;;;;;3.05;1.60;;;;;;;-145.63;28.14;39270.66;5033364;28;20048;-68
2024/03/12 10:33:48;;;;;;;1.40;1.30;;;;;;;-145.63;28.66;39266.75;5032957;28;20030;-65
2024/03/12 10:36:31;;;;;;;1.75;1.50;;;;;;;-145.63;28.00;39274.56;5034147;28;20052;-66
2024/03/12 10:39:06;;;;;;;3.63;1.90;;;;;;;-145.63;28.19;39258.94;5029587;28;20037;-66
2024/03/12 10:41:46;;;;;;;3.33;1.73;;;;;;;-145.63;28.84;39243.28;5033802;28;20048;-65
2024/03/12 10:44:52;;;;;;;3.22;1.50;;;;;;;-145.63;29.58;39274.56;5033025;28;20068;-66
2024/03/12 10:53:33;;;;;;;2.17;1.67;;;;;;;-145.63;28.50;39262.84;5033813;28;20026;-67
2024/03/12 10:56:01;;;;;;;1.92;1.00;;;;;;;-145.63;26.90;39282.41;5033780;28;20030;-66
2024/03/12 10:58:31;;;;;;;3.30;1.98;;;;;;;-145.63;26.84;39258.94;5032666;28;20041;-66
2024/03/12 11:01:00;;;;;;;2.22;1.50;;;;;;;-145.63;27.75;39262.84;5033519;28;20039;-66
2024/03/12 11:03:34;;;;;;;3.13;1.70;;;;;;;-145.63;28.94;39288.25;5032579;28;20378;-68
2024/03/12 11:06:34;;;;;;;3.13;1.50;;;;;;;-145.63;28.60;39313.69;5031625;28;20497;-66
2024/03/12 11:09:21;;;;;;;2.30;1.60;;;;;;;-145.63;28.21;39266.75;5033325;28;20029;-67
2024/03/12 11:12:32;;;;;;;2.10;1.50;;;;;;;-145.63;27.68;39260.88;5033279;28;20025;-67
2024/03/12 11:15:03;;;;;;;1.63;1.23;;;;;;;-145.63;27.96;39262.84;5033424;28;20030;-66
2024/03/12 11:17:37;;;;;;;1.75;1.33;;;;;;;-145.63;27.23;39262.84;5032020;28;20035;-65
2024/03/12 11:23:24;;;;;;;2.13;1.50;;;;;;;-145.63;27.59;39256.97;5031769;28;20120;-64
2024/03/12 11:25:50;;;;;;;2.50;1.40;;;;;;;-145.63;28.09;39262.84;5032793;28;20030;-64
2024/03/12 11:28:26;;;;;;;2.00;1.40;;;;;;;-145.63;28.32;39290.22;5033339;28;20048;-64
2024/03/12 11:31:03;;;;;;;2.92;1.95;;;;;;;-145.63;28.46;39286.31;5033177;28;20473;-65
2024/03/12 11:33:41;;;;;;;1.42;1.27;;;;;;;-145.63;26.61;39294.13;5013780;28;20117;-65
2024/03/12 11:36:32;;;;;;;1.42;1.33;;;;;;;-145.63;27.16;39272.63;5030439;28;20042;-64
2024/03/12 11:42:11;;;;;;;2.92;1.63;;;;;;;-145.63;27.19;39266.75;5052693;28;20025;-63
2024/03/12 11:44:57;;;;;;;2.80;1.92;;;;;;;-145.63;28.60;39278.47;5039304;28;20049;-64
2024/03/12 11:47:42;;;;;;;4.15;1.67;;;;;;;-145.63;28.99;39268.72;5044875;28;20033;-63
2024/03/12 11:50:50;;;;;;;3.15;1.80;;;;;;;-145.63;28.58;39288.25;5043050;28;20086;-65
2024/03/12 11:53:29;;;;;;;2.55;1.88;;;;;;;-145.63;29.82;39239.38;5032091;28;20048;-65
2024/03/12 11:56:10;;;;;;;2.25;1.60;;;;;;;-145.63;28.60;39262.84;5032724;28;20036;-66
2024/03/12 11:58:54;;;;;;;3.33;1.65;;;;;;;-145.63;28.09;39298.03;5032863;28;20037;-64
2024/03/12 12:01:26;;;;;;;3.20;1.80;;;;;;;-145.63;28.11;39354.75;5033058;28;20402;-69
2024/03/12 12:04:07;;;;;;;2.92;1.65;;;;;;;-145.63;28.29;39270.66;5032845;28;20049;-65
2024/03/12 12:06:33;;;;;;;4.07;2.20;;;;;;;-145.63;29.03;39278.47;5032779;28;20383;-66
2024/03/12 12:09:10;;;;;;;3.72;1.90;;;;;;;-145.63;28.22;39300.00;5033055;28;20040;-65
2024/03/12 12:11:42;;;;;;;3.05;2.17;;;;;;;-145.63;28.24;39268.72;5032602;28;20158;-66
2024/03/12 12:14:22;;;;;;;4.43;1.95;;;;;;;-145.63;27.28;39239.38;5032943;28;20029;-63
2024/03/12 12:16:57;;;;;;;2.22;1.70;;;;;;;-145.63;28.84;39262.84;5032843;28;20033;-64
2024/03/12 12:19:25;;;;;;;3.05;2.00;;;;;;;-145.63;27.22;39280.44;5031434;28;20033;-64
2024/03/12 12:22:22;;;;;;;3.97;1.90;;;;;;;-145.63;28.58;39272.63;5032187;28;20032;-64
2024/03/12 12:24:50;;;;;;;4.07;1.83;;;;;;;-145.63;28.69;39290.22;5013058;28;20038;-64
2024/03/12 12:27:27;;;;;;;2.58;1.90;;;;;;;-145.63;27.79;39266.75;5031134;28;20029;-64
2024/03/12 12:30:17;;;;;;;3.47;1.90;;;;;;;-145.63;28.40;39280.44;5032426;28;20179;-65
2024/03/12 12:32:44;;;;;;;1.50;1.40;;;;;;;-145.63;27.11;39290.22;5032506;28;20033;-65
2024/03/12 12:35:25;;;;;;;2.75;1.95;;;;;;;-145.63;27.77;39296.09;5030896;28;20347;-64
2024/03/12 12:38:21;;;;;;;1.77;1.67;;;;;;;-145.63;27.43;39290.22;5032188;28;20394;-64
2024/03/12 12:41:09;;;;;;;6.75;1.80;;;;;;;-145.63;28.15;39282.41;5032197;28;20060;-64
2024/03/12 12:43:42;;;;;;;2.25;1.70;;;;;;;-145.63;28.78;39296.09;5032458;28;20101;-64
2024/03/12 12:46:28;;;;;;;4.78;2.13;;;;;;;-145.63;27.76;39274.56;5032387;28;20470;-66
2024/03/12 12:48:54;;;;;;;4.47;2.20;;;;;;;-145.63;27.97;39278.47;5032509;28;20447;-65
2024/03/12 12:51:23;;;;;;;4.53;1.92;;;;;;;-145.63;28.96;39296.09;5032087;28;20036;-64
2024/03/12 12:57:42;;;;;;;3.10;1.70;;;;;;;-145.63;29.21;39309.78;5032670;28;20040;-66
2024/03/12 13:00:48;;;;;;;3.97;1.70;;;;;;;-145.63;28.71;39290.22;5031954;28;20041;-65
2024/03/12 13:03:28;;;;;;;3.13;1.88;;;;;;;-145.63;27.94;39290.22;5033184;28;20036;-62
2024/03/12 13:06:34;;;;;;;2.47;1.63;;;;;;;-145.63;27.38;39294.13;5035723;28;20041;-63
2024/03/12 13:09:35;;;;;;;2.67;1.95;;;;;;;-145.63;28.82;39280.44;5035888;28;20065;-65
2024/03/12 13:12:13;;;;;;;4.75;1.60;;;;;;;-145.63;27.79;39278.47;5035470;28;20521;-65
2024/03/12 13:14:47;;;;;;;2.10;1.30;;;;;;;-145.63;28.60;39278.47;5035863;28;20076;-66
2024/03/12 13:17:20;;;;;;;5.50;1.83;;;;;;;-145.63;28.34;39307.81;5035483;28;20022;-65
2024/03/12 13:19:51;;;;;;;2.45;1.88;;;;;;;-145.63;27.71;39262.84;5035281;28;20148;-65
2024/03/12 13:22:19;;;;;;;2.45;1.65;;;;;;;-145.63;29.03;39278.47;5035520;28;20478;-65